Time;durP1;ratioP1;P1;durP2;ratioP2;P2;SDS_P1;SDS_P2;PMS_P1;PMS_P2;Temp;Humidity;BMP_temperature;BMP_pressure;BME280_temperature;BME280_humidity;BME280_pressure;Samples;Min_cycle;Max_cycle;Signal;HPM_P1;HPM_P2
2020/12/10 00:01:56;;;;;;;40.07;22.50;;;4.30;1.00;;;;;;5063114;28;20277;-48
2020/12/10 00:04:22;;;;;;;38.40;22.10;;;4.30;1.00;;;;;;5063495;28;20224;-50
2020/12/10 00:06:48;;;;;;;37.30;21.10;;;4.20;1.00;;;;;;5063999;28;20189;-51
2020/12/10 00:09:13;;;;;;;39.30;21.00;;;4.20;1.00;;;;;;5070712;28;20215;-52
2020/12/10 00:11:39;;;;;;;37.07;21.97;;;4.20;1.00;;;;;;5067260;28;20201;-48
2020/12/10 00:14:05;;;;;;;39.07;23.47;;;4.20;1.00;;;;;;5054519;28;20208;-52
2020/12/10 00:16:32;;;;;;;35.00;19.70;;;4.20;1.00;;;;;;5051144;28;20190;-52
2020/12/10 00:18:57;;;;;;;36.58;20.20;;;4.20;1.00;;;;;;5066251;28;20436;-54
2020/12/10 00:21:23;;;;;;;36.37;20.10;;;4.10;1.00;;;;;;5068215;28;20177;-53
2020/12/10 00:23:49;;;;;;;38.90;21.23;;;4.10;1.00;;;;;;5070627;28;20264;-48
2020/12/10 00:26:17;;;;;;;39.97;21.48;;;4.10;1.00;;;;;;5067635;28;20185;-54
2020/12/10 00:28:43;;;;;;;33.15;20.33;;;4.10;1.00;;;;;;5062984;28;20275;-52
2020/12/10 00:31:08;;;;;;;36.10;20.40;;;4.00;1.00;;;;;;5069408;28;20263;-50
2020/12/10 00:33:34;;;;;;;37.27;21.70;;;4.00;1.00;;;;;;5059783;28;20211;-51
2020/12/10 00:35:59;;;;;;;39.97;20.70;;;4.10;1.00;;;;;;5068442;28;20186;-53
2020/12/10 00:38:27;;;;;;;38.10;20.63;;;4.10;1.00;;;;;;5070792;28;20211;-53
2020/12/10 00:40:53;;;;;;;37.58;21.13;;;4.00;1.00;;;;;;5070194;28;20610;-55
2020/12/10 00:43:19;;;;;;;37.90;20.65;;;4.10;1.00;;;;;;5066234;28;21000;-52
2020/12/10 00:45:46;;;;;;;38.53;20.03;;;4.10;1.00;;;;;;5065771;28;20196;-51
2020/12/10 00:48:11;;;;;;;41.80;21.77;;;4.10;1.00;;;;;;5070007;28;20181;-54
2020/12/10 00:50:37;;;;;;;39.07;20.40;;;4.10;1.00;;;;;;5057001;28;20214;-50
2020/12/10 00:53:03;;;;;;;38.77;19.57;;;4.00;1.00;;;;;;5068849;28;20869;-51
2020/12/10 00:55:28;;;;;;;36.70;21.53;;;3.90;1.00;;;;;;5070298;28;20181;-53
2020/12/10 00:57:54;;;;;;;34.30;21.30;;;3.90;1.00;;;;;;5068977;28;20185;-52
2020/12/10 01:00:19;;;;;;;37.00;19.57;;;3.90;1.00;;;;;;5068408;28;20300;-52
2020/12/10 01:02:45;;;;;;;39.77;20.07;;;4.00;1.00;;;;;;5057737;28;20190;-52
2020/12/10 01:05:11;;;;;;;39.50;21.53;;;4.00;1.00;;;;;;5065171;28;20181;-51
2020/12/10 01:07:36;;;;;;;37.00;20.20;;;3.90;1.00;;;;;;5069629;28;20165;-51
2020/12/10 01:10:04;;;;;;;37.67;20.57;;;4.00;1.00;;;;;;5069732;28;20201;-50
2020/12/10 01:12:30;;;;;;;37.28;19.45;;;4.00;1.00;;;;;;5067924;28;20189;-49
2020/12/10 01:14:56;;;;;;;37.37;20.90;;;3.90;1.00;;;;;;5068458;28;20238;-55
2020/12/10 01:17:21;;;;;;;37.07;21.13;;;3.90;1.00;;;;;;5058071;28;20556;-52
2020/12/10 01:19:47;;;;;;;39.53;21.27;;;3.90;1.00;;;;;;5062846;28;20177;-55
2020/12/10 01:22:12;;;;;;;34.57;18.60;;;3.90;1.00;;;;;;5069732;28;20185;-49
2020/12/10 01:24:38;;;;;;;37.73;19.03;;;3.90;1.00;;;;;;5078220;28;20191;-52
2020/12/10 01:27:04;;;;;;;34.83;19.80;;;3.90;1.00;;;;;;5067613;28;20511;-53
2020/12/10 01:29:29;;;;;;;39.03;20.90;;;3.90;1.00;;;;;;5052522;28;20202;-51
2020/12/10 01:31:55;;;;;;;36.50;19.50;;;3.90;1.00;;;;;;5052707;28;20197;-55
2020/12/10 01:34:21;;;;;;;39.60;20.00;;;3.80;1.00;;;;;;5057678;28;20247;-53
2020/12/10 01:36:46;;;;;;;35.77;20.00;;;3.80;1.00;;;;;;5069641;28;20178;-51
2020/12/10 01:39:12;;;;;;;39.47;20.80;;;3.80;1.00;;;;;;5065955;28;20280;-53
2020/12/10 01:41:38;;;;;;;37.70;19.77;;;3.80;1.00;;;;;;5059201;28;20237;-52
2020/12/10 01:44:06;;;;;;;39.27;21.00;;;3.90;1.00;;;;;;5066002;28;20192;-49
2020/12/10 01:46:33;;;;;;;40.80;20.35;;;3.80;1.00;;;;;;5068513;28;20238;-50
2020/12/10 01:48:59;;;;;;;33.72;18.95;;;3.80;1.00;;;;;;5052585;28;20196;-51
2020/12/10 01:51:25;;;;;;;36.30;21.75;;;3.80;1.00;;;;;;5051941;28;20279;-49
2020/12/10 01:53:50;;;;;;;37.40;20.97;;;3.80;1.00;;;;;;5066051;28;20754;-51
2020/12/10 01:56:16;;;;;;;37.50;20.13;;;3.80;1.00;;;;;;5069163;28;20182;-51
2020/12/10 01:58:42;;;;;;;37.50;19.73;;;3.80;1.00;;;;;;5059135;28;20992;-47
2020/12/10 02:01:08;;;;;;;40.43;21.33;;;3.90;1.00;;;;;;5065407;28;20451;-52
2020/12/10 02:03:34;;;;;;;38.83;21.20;;;3.90;1.00;;;;;;5052142;28;20443;-54
2020/12/10 02:05:59;;;;;;;36.97;19.50;;;3.90;1.00;;;;;;5054864;28;20473;-51
2020/12/10 02:08:25;;;;;;;38.93;19.53;;;3.90;1.00;;;;;;5068353;28;20296;-53
2020/12/10 02:10:50;;;;;;;35.27;20.30;;;3.90;1.00;;;;;;5069098;28;20211;-51
2020/12/10 02:13:16;;;;;;;38.27;20.40;;;3.80;1.00;;;;;;5066565;28;20254;-49
2020/12/10 02:15:49;;;;;;;35.93;19.73;;;3.80;1.00;;;;;;5063321;28;20259;-51
2020/12/10 02:18:15;;;;;;;38.63;19.20;;;3.80;1.00;;;;;;5050021;28;20177;-52
2020/12/10 02:20:43;;;;;;;39.83;19.23;;;3.80;1.00;;;;;;5069159;28;20185;-51
2020/12/10 02:23:10;;;;;;;34.33;20.42;;;3.80;1.00;;;;;;5066256;28;20251;-49
2020/12/10 02:25:38;;;;;;;39.45;19.92;;;3.80;1.00;;;;;;5061403;28;20277;-52
2020/12/10 02:28:06;;;;;;;40.22;21.02;;;3.80;1.00;;;;;;5065271;28;20209;-51
2020/12/10 02:30:32;;;;;;;39.03;20.20;;;3.80;1.00;;;;;;5060906;28;20687;-51
2020/12/10 02:32:59;;;;;;;38.25;21.23;;;3.80;1.00;;;;;;5058268;28;20209;-50
2020/12/10 02:35:26;;;;;;;41.35;21.05;;;3.80;1.00;;;;;;5064210;28;20196;-53
2020/12/10 02:37:54;;;;;;;38.35;20.10;;;3.70;1.00;;;;;;5063804;28;20181;-55
2020/12/10 02:40:20;;;;;;;35.58;20.13;;;3.70;1.00;;;;;;5054979;28;20225;-51
2020/12/10 02:42:45;;;;;;;44.97;22.30;;;3.70;1.00;;;;;;5054402;28;20596;-54
2020/12/10 02:45:11;;;;;;;36.13;21.50;;;3.70;1.00;;;;;;5062002;28;20289;-53
2020/12/10 02:47:37;;;;;;;37.43;20.37;;;3.60;1.00;;;;;;5063169;28;20215;-52
2020/12/10 02:50:03;;;;;;;43.90;22.50;;;3.60;1.00;;;;;;5055586;28;20249;-51
2020/12/10 02:52:29;;;;;;;39.53;20.58;;;3.60;1.00;;;;;;5055735;28;20177;-48
2020/12/10 02:54:55;;;;;;;42.87;22.43;;;3.70;1.00;;;;;;5066925;28;20177;-51
2020/12/10 02:57:20;;;;;;;41.43;22.10;;;3.70;1.00;;;;;;5072220;28;20181;-49
2020/12/10 02:59:46;;;;;;;35.03;20.63;;;3.70;1.00;;;;;;5071977;28;20614;-49
2020/12/10 03:02:11;;;;;;;42.80;20.30;;;3.60;1.00;;;;;;5068640;28;20680;-49
2020/12/10 03:04:37;;;;;;;40.03;20.73;;;3.70;1.00;;;;;;5071123;28;20223;-53
2020/12/10 03:07:02;;;;;;;39.80;20.43;;;3.60;1.00;;;;;;5072323;28;20189;-51
2020/12/10 03:09:28;;;;;;;38.50;20.10;;;3.60;1.20;;;;;;5072172;28;20231;-50
2020/12/10 03:11:54;;;;;;;41.83;21.17;;;3.60;2.30;;;;;;5069261;28;20180;-52
2020/12/10 03:14:19;;;;;;;42.27;20.87;;;3.60;3.00;;;;;;5065983;28;20268;-50
2020/12/10 03:16:45;;;;;;;37.77;21.73;;;3.60;7.30;;;;;;5068923;28;20203;-49
2020/12/10 03:19:10;;;;;;;36.33;19.40;;;3.70;7.40;;;;;;5056134;28;20609;-48
2020/12/10 03:21:36;;;;;;;40.80;21.20;;;3.60;6.40;;;;;;5060350;28;20185;-55
2020/12/10 03:24:01;;;;;;;37.20;21.30;;;3.70;1.00;;;;;;5065313;28;20181;-54
2020/12/10 03:26:27;;;;;;;34.60;19.67;;;3.70;1.00;;;;;;5065111;28;20651;-52
2020/12/10 03:28:53;;;;;;;37.87;20.80;;;3.70;1.00;;;;;;5057489;28;20215;-53
2020/12/10 03:31:18;;;;;;;38.70;20.30;;;3.70;1.00;;;;;;5066160;28;20254;-54
2020/12/10 03:33:44;;;;;;;38.90;21.00;;;3.70;1.00;;;;;;5063702;28;20199;-53
2020/12/10 03:36:09;;;;;;;40.43;20.70;;;3.70;1.00;;;;;;5072143;28;20188;-51
2020/12/10 03:38:35;;;;;;;40.90;21.70;;;3.70;1.00;;;;;;5069871;28;20185;-49
2020/12/10 03:41:04;;;;;;;40.10;21.23;;;3.70;1.00;;;;;;5071707;28;20216;-51
2020/12/10 03:43:29;;;;;;;35.28;20.33;;;3.80;1.00;;;;;;5058692;28;20182;-50
2020/12/10 03:45:55;;;;;;;37.57;20.00;;;3.80;1.00;;;;;;5071719;28;20535;-52
2020/12/10 03:48:20;;;;;;;40.80;20.40;;;3.80;1.00;;;;;;5072012;28;20192;-51
2020/12/10 03:50:46;;;;;;;40.07;21.37;;;3.90;1.00;;;;;;5069752;28;20239;-50
2020/12/10 03:53:12;;;;;;;36.87;19.47;;;3.80;1.00;;;;;;5060195;28;20170;-52
2020/12/10 03:55:37;;;;;;;37.40;20.03;;;3.80;1.00;;;;;;5053372;28;20213;-51
2020/12/10 03:58:03;;;;;;;38.10;21.40;;;3.80;1.00;;;;;;5071817;28;20201;-53
2020/12/10 04:00:28;;;;;;;40.53;20.87;;;3.80;1.00;;;;;;5071381;28;20195;-52
2020/12/10 04:02:54;;;;;;;38.07;20.30;;;3.80;1.00;;;;;;5060819;28;20208;-53
2020/12/10 04:05:20;;;;;;;37.77;21.83;;;3.80;1.00;;;;;;5059427;28;20181;-48
2020/12/10 04:07:46;;;;;;;41.93;21.20;;;3.80;1.00;;;;;;5053269;28;20189;-49
2020/12/10 04:10:11;;;;;;;46.03;21.92;;;3.80;1.00;;;;;;5062569;28;20786;-48
2020/12/10 04:12:37;;;;;;;43.80;21.77;;;3.80;1.00;;;;;;5060525;28;20189;-53
2020/12/10 04:15:03;;;;;;;45.23;25.67;;;3.80;1.00;;;;;;5069717;28;20693;-50
2020/12/10 04:17:28;;;;;;;40.93;22.40;;;3.80;1.00;;;;;;5071449;28;20208;-50
2020/12/10 04:19:54;;;;;;;42.83;23.37;;;3.70;1.00;;;;;;5069930;28;20195;-52
2020/12/10 04:22:20;;;;;;;44.20;21.23;;;3.70;1.00;;;;;;5065767;28;20189;-51
2020/12/10 04:24:45;;;;;;;38.97;22.17;;;3.70;2.20;;;;;;5065859;28;20565;-52
2020/12/10 04:27:11;;;;;;;40.07;21.50;;;3.80;4.60;;;;;;5067819;28;20253;-52
2020/12/10 04:29:36;;;;;;;43.33;24.47;;;3.80;3.60;;;;;;5075841;28;20209;-50
2020/12/10 04:32:02;;;;;;;41.20;23.03;;;3.80;3.00;;;;;;5057568;28;20199;-54
2020/12/10 04:34:28;;;;;;;42.80;23.27;;;3.80;5.60;;;;;;5068684;28;20189;-53
2020/12/10 04:36:53;;;;;;;42.10;23.67;;;3.80;4.00;;;;;;5070952;28;20169;-53
2020/12/10 04:39:19;;;;;;;45.27;24.67;;;3.80;6.10;;;;;;5067110;28;20181;-53
2020/12/10 04:41:46;;;;;;;43.43;22.83;;;3.70;7.10;;;;;;5069991;28;20232;-54
2020/12/10 04:44:12;;;;;;;41.17;21.85;;;3.70;11.00;;;;;;5069511;28;20219;-52
2020/12/10 04:46:39;;;;;;;41.80;22.55;;;3.70;16.60;;;;;;5065177;28;20192;-52
2020/12/10 04:49:06;;;;;;;39.80;21.00;;;3.70;20.60;;;;;;5060631;28;20618;-55
2020/12/10 04:51:34;;;;;;;44.42;23.25;;;3.70;21.00;;;;;;5069932;28;20184;-51
2020/12/10 04:54:01;;;;;;;39.80;22.23;;;3.60;19.00;;;;;;5053580;28;20577;-54
2020/12/10 04:56:27;;;;;;;42.85;21.65;;;3.60;22.20;;;;;;5058861;28;20199;-52
2020/12/10 04:58:53;;;;;;;45.30;22.90;;;3.50;26.90;;;;;;5070322;28;20235;-52
2020/12/10 05:01:19;;;;;;;46.43;21.70;;;3.60;25.00;;;;;;5070488;28;20441;-54
2020/12/10 05:03:46;;;;;;;42.10;22.45;;;3.60;20.70;;;;;;5055383;28;20185;-53
2020/12/10 05:06:16;;;;;;;50.00;22.40;;;3.50;17.30;;;;;;5050702;28;20169;-50
2020/12/10 05:08:44;;;;;;;40.75;22.58;;;3.40;18.80;;;;;;5050746;28;20182;-52
2020/12/10 05:11:10;;;;;;;42.33;23.45;;;3.40;19.70;;;;;;5050162;28;20197;-52
2020/12/10 05:13:37;;;;;;;44.90;22.25;;;3.30;21.00;;;;;;5060273;28;20189;-49
2020/12/10 05:16:03;;;;;;;44.97;21.38;;;3.30;20.80;;;;;;5052006;28;20170;-51
2020/12/10 05:18:29;;;;;;;43.28;22.55;;;3.30;20.10;;;;;;5067961;28;20255;-53
2020/12/10 05:20:56;;;;;;;39.50;22.67;;;3.20;23.40;;;;;;5047123;28;20267;-53
2020/12/10 05:23:39;;;;;;;49.30;22.60;;;3.20;25.60;;;;;;5042488;28;20192;-51
2020/12/10 05:26:06;;;;;;;41.65;22.45;;;3.10;32.10;;;;;;5042778;28;20171;-55
2020/12/10 05:28:50;;;;;;;44.67;23.67;;;3.10;35.90;;;;;;5046554;28;20276;-53
2020/12/10 05:31:17;;;;;;;43.80;21.10;;;3.10;33.20;;;;;;5054853;28;20179;-53
2020/12/10 05:33:57;;;;;;;47.17;23.10;;;3.10;40.50;;;;;;5060101;28;20219;-51
2020/12/10 05:36:23;;;;;;;45.38;22.65;;;3.10;42.30;;;;;;5055931;28;20303;-52
2020/12/10 05:39:03;;;;;;;47.88;22.70;;;3.00;44.30;;;;;;5069745;28;20188;-49
2020/12/10 05:41:30;;;;;;;45.92;22.85;;;3.00;43.80;;;;;;5068244;28;20235;-47
2020/12/10 05:43:56;;;;;;;43.63;22.50;;;3.00;43.20;;;;;;5069108;28;20183;-52
2020/12/10 05:46:25;;;;;;;47.27;23.07;;;2.90;39.90;;;;;;5068377;28;20680;-50
2020/12/10 05:48:52;;;;;;;53.67;25.33;;;2.90;44.20;;;;;;5068940;28;20520;-50
2020/12/10 05:51:22;;;;;;;41.13;23.08;;;2.90;47.60;;;;;;5069632;28;20230;-50
2020/12/10 05:53:50;;;;;;;48.33;21.90;;;2.80;44.30;;;;;;5068586;28;20188;-49
2020/12/10 05:56:16;;;;;;;51.00;23.58;;;2.80;49.00;;;;;;5069493;28;20256;-51
2020/12/10 05:58:50;;;;;;;50.67;24.00;;;2.80;54.60;;;;;;5067116;28;20705;-51
2020/12/10 06:01:35;;;;;;;51.90;24.02;;;2.80;49.00;;;;;;5068619;28;20611;-49
2020/12/10 06:04:02;;;;;;;49.13;28.10;;;2.80;55.00;;;;;;5069310;28;20175;-49
2020/12/10 06:06:30;;;;;;;44.05;23.25;;;2.80;49.60;;;;;;5067728;28;20202;-50
2020/12/10 06:09:04;;;;;;;42.20;23.33;;;2.80;42.10;;;;;;5067858;28;20181;-55
2020/12/10 06:11:31;;;;;;;47.50;23.23;;;2.80;38.80;;;;;;5050771;28;20183;-49
2020/12/10 06:14:03;;;;;;;51.95;22.25;;;2.80;34.30;;;;;;5069033;28;20171;-51
2020/12/10 06:16:28;;;;;;;48.97;24.15;;;2.70;34.40;;;;;;5048735;28;20216;-49
2020/12/10 06:19:01;;;;;;;47.27;24.50;;;2.70;34.30;;;;;;5049311;28;20203;-54
2020/12/10 06:21:46;;;;;;;48.40;22.30;;;2.70;30.90;;;;;;5067114;28;20186;-52
2020/12/10 06:24:27;;;;;;;40.30;22.73;;;2.70;30.40;;;;;;5069129;28;20176;-48
2020/12/10 06:26:56;;;;;;;42.78;23.35;;;2.70;28.10;;;;;;5062035;28;20210;-51
2020/12/10 06:29:28;;;;;;;48.05;22.52;;;2.70;29.20;;;;;;5068162;28;20196;-51
2020/12/10 06:32:06;;;;;;;44.42;22.20;;;2.70;28.30;;;;;;5066830;28;20180;-49
2020/12/10 06:34:41;;;;;;;43.63;23.35;;;2.60;29.20;;;;;;5071579;28;20210;-52
2020/12/10 06:37:20;;;;;;;44.50;21.63;;;2.60;28.00;;;;;;5074027;28;20179;-47
2020/12/10 06:39:48;;;;;;;43.35;21.90;;;2.60;28.30;;;;;;5053563;28;20219;-51
2020/12/10 06:42:14;;;;;;;43.50;20.95;;;2.60;28.00;;;;;;5068339;28;20188;-52
2020/12/10 06:44:40;;;;;;;40.70;22.57;;;2.60;27.70;;;;;;5059196;28;20544;-55
2020/12/10 06:47:06;;;;;;;41.00;21.40;;;2.60;26.00;;;;;;5072981;28;20912;-53
2020/12/10 06:49:33;;;;;;;40.27;21.67;;;2.60;28.60;;;;;;5071785;28;20206;-49
2020/12/10 06:52:19;;;;;;;43.00;20.23;;;2.60;27.90;;;;;;5064152;28;21186;-54
2020/12/10 06:55:04;;;;;;;43.30;22.08;;;2.60;27.40;;;;;;5070565;28;20184;-49
2020/12/10 07:00:52;;;;;;;42.30;21.95;;;2.60;24.40;;;;;;5059178;28;20230;-51
2020/12/10 07:03:27;;;;;;;46.28;24.55;;;2.60;24.50;;;;;;5072548;28;20180;-50
2020/12/10 07:05:53;;;;;;;39.40;20.88;;;2.60;24.00;;;;;;5070967;28;20210;-50
2020/12/10 07:08:20;;;;;;;44.47;21.40;;;2.70;23.60;;;;;;5072616;28;20176;-55
2020/12/10 07:10:48;;;;;;;35.20;20.63;;;2.60;21.50;;;;;;5072486;28;20223;-53
2020/12/10 07:13:16;;;;;;;36.88;19.90;;;2.60;22.50;;;;;;5071689;28;20270;-53
2020/12/10 07:15:47;;;;;;;44.03;21.98;;;2.60;24.90;;;;;;5065624;28;20315;-53
2020/12/10 07:18:13;;;;;;;38.75;20.60;;;2.70;23.60;;;;;;5066137;28;20699;-52
2020/12/10 07:20:38;;;;;;;41.33;21.50;;;2.70;21.80;;;;;;5069765;28;20197;-52
2020/12/10 07:23:04;;;;;;;51.97;25.20;;;2.80;18.70;;;;;;5069453;28;20257;-54
2020/12/10 07:25:31;;;;;;;38.40;21.50;;;2.80;16.80;;;;;;5069290;28;20619;-47
2020/12/10 07:27:57;;;;;;;41.58;20.58;;;2.90;15.00;;;;;;5074547;28;20172;-48
2020/12/10 07:30:27;;;;;;;42.63;21.60;;;2.90;11.10;;;;;;5066795;28;20209;-50
2020/12/10 07:32:58;;;;;;;38.85;21.50;;;2.80;9.80;;;;;;5070268;28;20306;-51
2020/12/10 07:35:34;;;;;;;49.83;23.50;;;2.80;11.60;;;;;;5071674;28;20283;-51
2020/12/10 07:38:10;;;;;;;41.53;22.13;;;2.90;8.30;;;;;;5065308;28;20185;-51
2020/12/10 07:40:36;;;;;;;44.20;22.27;;;2.90;8.20;;;;;;5071457;28;20232;-50
2020/12/10 07:43:06;;;;;;;37.73;20.97;;;3.00;3.20;;;;;;5071177;28;20207;-49
2020/12/10 07:45:33;;;;;;;46.28;22.48;;;2.90;2.50;;;;;;5071340;28;20434;-51
2020/12/10 07:48:04;;;;;;;39.28;21.25;;;2.90;3.60;;;;;;5071920;28;20192;-53
2020/12/10 07:50:32;;;;;;;37.08;22.17;;;2.90;3.90;;;;;;5070825;28;20201;-50
2020/12/10 07:53:03;;;;;;;38.85;21.02;;;3.00;3.20;;;;;;5071183;28;20173;-54
2020/12/10 07:55:33;;;;;;;42.65;21.08;;;3.00;1.00;;;;;;5071054;28;20184;-52
2020/12/10 07:58:02;;;;;;;36.80;20.95;;;3.10;1.00;;;;;;5071204;28;20184;-49
2020/12/10 08:00:30;;;;;;;40.47;21.40;;;3.10;1.00;;;;;;5070306;28;20648;-51
2020/12/10 08:03:37;;;;;;;42.78;23.23;;;3.20;1.00;;;;;;5070438;28;20274;-54
2020/12/10 08:06:03;;;;;;;42.85;23.95;;;3.20;1.00;;;;;;5069428;28;21692;-53
2020/12/10 08:08:43;;;;;;;41.25;21.30;;;3.20;1.00;;;;;;5070087;28;20183;-51
2020/12/10 08:11:17;;;;;;;37.75;21.13;;;3.20;1.00;;;;;;5065442;28;20679;-52
2020/12/10 08:14:05;;;;;;;37.47;20.60;;;3.10;1.00;;;;;;5069472;28;20233;-51
2020/12/10 08:16:42;;;;;;;40.85;22.95;;;3.00;1.20;;;;;;5067064;28;20562;-49
2020/12/10 08:19:21;;;;;;;43.22;21.20;;;3.00;3.30;;;;;;5069537;28;20177;-51
2020/12/10 08:21:49;;;;;;;39.20;21.30;;;2.90;7.40;;;;;;5069808;28;20876;-57
2020/12/10 08:24:36;;;;;;;41.58;22.05;;;3.00;5.70;;;;;;5067882;28;20184;-57
2020/12/10 08:27:02;;;;;;;45.33;22.10;;;3.10;1.50;;;;;;5069889;28;20188;-51
2020/12/10 08:29:27;;;;;;;42.00;21.88;;;3.00;2.90;;;;;;5068144;28;20217;-53
2020/12/10 08:32:08;;;;;;;44.40;23.63;;;3.00;4.70;;;;;;5066231;28;20231;-54
2020/12/10 08:34:34;;;;;;;45.38;21.90;;;3.00;2.60;;;;;;5061402;28;20189;-52
2020/12/10 08:37:07;;;;;;;44.73;23.90;;;3.00;1.50;;;;;;5069394;28;20187;-54
2020/12/10 08:39:34;;;;;;;47.15;21.55;;;3.00;1.00;;;;;;5067248;28;20181;-57
2020/12/10 08:42:00;;;;;;;46.25;22.70;;;3.10;1.00;;;;;;5068229;28;20774;-48
2020/12/10 08:44:26;;;;;;;45.08;23.65;;;3.10;1.00;;;;;;5069929;28;20191;-57
2020/12/10 08:47:01;;;;;;;46.73;22.80;;;3.20;1.00;;;;;;5069205;28;20252;-56
2020/12/10 08:49:27;;;;;;;44.63;21.27;;;3.20;1.00;;;;;;5069401;28;20599;-58
2020/12/10 08:51:53;;;;;;;45.42;22.10;;;3.40;1.00;;;;;;5067997;28;20282;-56
2020/12/10 08:54:19;;;;;;;43.80;24.40;;;3.40;1.00;;;;;;5068584;28;20201;-50
2020/12/10 08:56:45;;;;;;;46.07;22.90;;;3.40;1.00;;;;;;5069424;28;20185;-52
2020/12/10 08:59:11;;;;;;;42.35;22.60;;;3.40;1.00;;;;;;5069355;28;20648;-53
2020/12/10 09:01:36;;;;;;;37.63;20.03;;;3.40;1.00;;;;;;5069705;28;20268;-51
2020/12/10 09:04:03;;;;;;;40.43;21.57;;;3.30;1.00;;;;;;5069296;28;20187;-52
2020/12/10 09:06:36;;;;;;;42.97;22.35;;;3.30;1.00;;;;;;5069179;28;20220;-56
2020/12/10 09:09:03;;;;;;;36.35;20.70;;;3.30;1.00;;;;;;5069228;28;20184;-54
2020/12/10 09:11:29;;;;;;;43.20;22.52;;;3.40;1.00;;;;;;5069731;28;20194;-52
2020/12/10 09:13:58;;;;;;;47.57;23.33;;;3.50;1.00;;;;;;5068964;28;20584;-51
2020/12/10 09:16:24;;;;;;;41.72;22.05;;;3.50;1.00;;;;;;5053077;28;20181;-54
2020/12/10 09:18:50;;;;;;;45.38;23.02;;;3.50;1.00;;;;;;5049310;28;20198;-52
2020/12/10 09:21:15;;;;;;;45.60;22.60;;;3.50;1.00;;;;;;5049494;28;20220;-49
2020/12/10 09:23:44;;;;;;;44.50;21.80;;;3.50;1.00;;;;;;5051423;28;20268;-51
2020/12/10 09:26:11;;;;;;;39.83;21.77;;;3.50;1.00;;;;;;5068749;28;20280;-55
2020/12/10 09:28:37;;;;;;;32.83;19.73;;;3.50;1.00;;;;;;5075500;28;20184;-50
2020/12/10 09:31:02;;;;;;;39.17;20.97;;;3.60;1.00;;;;;;5055352;28;20224;-53
2020/12/10 09:33:28;;;;;;;42.47;20.97;;;3.60;1.00;;;;;;5061060;28;20206;-52
2020/12/10 09:35:53;;;;;;;37.73;20.23;;;3.50;1.00;;;;;;5064947;28;20176;-53
2020/12/10 09:38:19;;;;;;;39.57;21.90;;;3.60;1.00;;;;;;5055541;28;20593;-52
2020/12/10 09:40:45;;;;;;;42.37;20.83;;;3.60;1.00;;;;;;5066533;28;20232;-50
2020/12/10 09:43:11;;;;;;;37.37;20.50;;;3.70;1.00;;;;;;5069102;28;20192;-55
2020/12/10 09:45:37;;;;;;;38.90;20.55;;;3.70;1.00;;;;;;5067316;28;20235;-53
2020/12/10 09:48:02;;;;;;;42.20;20.80;;;3.80;1.00;;;;;;5069020;28;20256;-54
2020/12/10 09:50:35;;;;;;;37.77;21.27;;;3.90;1.00;;;;;;5067881;28;20269;-53
2020/12/10 09:53:06;;;;;;;37.60;20.77;;;3.90;1.00;;;;;;5059711;28;20425;-51
2020/12/10 09:58:17;;;;;;;41.28;21.05;;;3.90;1.00;;;;;;5057684;28;20654;-52
2020/12/10 10:00:48;;;;;;;38.20;20.30;;;4.00;1.00;;;;;;5052822;28;20185;-50
2020/12/10 10:03:14;;;;;;;38.33;20.33;;;3.90;1.00;;;;;;5067934;28;20185;-54
2020/12/10 10:05:41;;;;;;;44.40;21.00;;;3.90;1.00;;;;;;5068521;28;20271;-52
2020/12/10 10:08:07;;;;;;;42.67;21.73;;;3.90;1.00;;;;;;5068535;28;20655;-52
2020/12/10 10:10:32;;;;;;;41.63;21.27;;;3.90;1.00;;;;;;5066955;28;20314;-48
2020/12/10 10:12:58;;;;;;;36.77;20.90;;;4.00;1.00;;;;;;5068646;28;20420;-48
2020/12/10 10:15:24;;;;;;;42.10;19.77;;;4.10;1.00;;;;;;5068693;28;20618;-52
2020/12/10 10:17:50;;;;;;;32.58;18.73;;;4.10;1.00;;;;;;5059307;28;20243;-51
2020/12/10 10:20:16;;;;;;;38.00;20.30;;;4.30;1.00;;;;;;5048638;28;20170;-50
2020/12/10 10:22:45;;;;;;;38.58;21.30;;;4.30;1.00;;;;;;5049015;28;20193;-51
2020/12/10 10:25:11;;;;;;;42.50;21.50;;;4.30;1.00;;;;;;5050081;28;20182;-51
2020/12/10 10:27:36;;;;;;;35.20;21.23;;;4.20;1.00;;;;;;5070501;28;20200;-49
2020/12/10 10:30:06;;;;;;;40.77;20.97;;;4.20;1.00;;;;;;5075634;28;20204;-49
2020/12/10 10:32:33;;;;;;;38.92;20.35;;;4.00;1.00;;;;;;5073275;28;20246;-53
2020/12/10 10:34:59;;;;;;;36.80;21.27;;;3.90;1.00;;;;;;5067332;28;20697;-51
2020/12/10 10:37:25;;;;;;;39.60;20.87;;;4.00;1.00;;;;;;5066862;28;20184;-53
2020/12/10 10:39:50;;;;;;;37.60;19.97;;;4.00;1.00;;;;;;5066380;28;20260;-48
2020/12/10 10:42:16;;;;;;;39.70;20.93;;;3.90;1.00;;;;;;5068338;28;20212;-52
2020/12/10 10:44:42;;;;;;;40.80;21.13;;;3.90;1.00;;;;;;5062501;28;20181;-53
2020/12/10 10:47:07;;;;;;;42.93;21.43;;;3.90;1.00;;;;;;5066164;28;20185;-50
2020/12/10 10:49:33;;;;;;;40.70;19.80;;;3.90;1.00;;;;;;5049638;28;20209;-52
2020/12/10 10:51:59;;;;;;;39.57;20.57;;;4.00;1.00;;;;;;5054963;28;20705;-52
2020/12/10 10:54:24;;;;;;;38.83;19.90;;;3.90;1.00;;;;;;5068035;28;20935;-51
2020/12/10 10:56:50;;;;;;;37.40;22.47;;;3.80;1.00;;;;;;5066887;28;20176;-50
2020/12/10 10:59:15;;;;;;;44.53;22.60;;;3.80;1.00;;;;;;5064045;28;20209;-51
2020/12/10 11:01:41;;;;;;;43.40;22.33;;;3.90;1.00;;;;;;5047400;28;20174;-51
2020/12/10 11:04:07;;;;;;;47.43;23.23;;;4.00;1.00;;;;;;5064907;28;20236;-50
2020/12/10 11:06:32;;;;;;;39.13;22.23;;;3.90;1.00;;;;;;5066374;28;20616;-54
2020/12/10 11:08:58;;;;;;;42.50;22.93;;;3.90;1.00;;;;;;5064538;28;20185;-53
2020/12/10 11:11:24;;;;;;;42.13;22.50;;;3.90;1.00;;;;;;5067906;28;20239;-50
2020/12/10 11:13:50;;;;;;;40.83;22.33;;;3.90;1.00;;;;;;5067508;28;20193;-55
2020/12/10 11:16:16;;;;;;;43.63;23.83;;;4.00;1.00;;;;;;5062589;28;20562;-51
2020/12/10 11:18:43;;;;;;;44.42;21.83;;;4.00;1.00;;;;;;5071610;28;20177;-53
2020/12/10 11:21:10;;;;;;;43.28;22.58;;;4.10;1.00;;;;;;5071083;28;20440;-50
2020/12/10 11:23:36;;;;;;;42.05;21.77;;;4.10;1.00;;;;;;5053124;28;20189;-52
2020/12/10 11:26:02;;;;;;;43.17;22.23;;;4.10;1.00;;;;;;5063276;28;20177;-53
2020/12/10 11:28:28;;;;;;;43.30;22.33;;;4.10;1.00;;;;;;5068144;28;20607;-53
2020/12/10 11:30:57;;;;;;;39.70;21.30;;;4.20;1.00;;;;;;5077776;28;20454;-50
2020/12/10 11:33:24;;;;;;;41.22;21.17;;;4.20;1.00;;;;;;5071635;28;20260;-51
2020/12/10 11:35:50;;;;;;;41.90;21.17;;;4.10;1.00;;;;;;5071423;28;20192;-48
2020/12/10 11:38:16;;;;;;;44.97;21.90;;;4.10;1.00;;;;;;5069646;28;20592;-51
2020/12/10 11:40:41;;;;;;;44.77;22.33;;;4.20;1.00;;;;;;5071417;28;20220;-54
2020/12/10 11:43:07;;;;;;;37.50;20.30;;;4.20;1.00;;;;;;5071456;28;20173;-51
2020/12/10 11:45:33;;;;;;;37.27;20.33;;;4.20;1.00;;;;;;5070356;28;20185;-52
2020/12/10 11:48:03;;;;;;;37.97;21.90;;;4.30;1.00;;;;;;5071418;28;20600;-54
2020/12/10 11:50:31;;;;;;;41.22;22.00;;;4.20;1.00;;;;;;5069042;28;20467;-55
2020/12/10 11:52:56;;;;;;;40.90;21.48;;;4.20;1.00;;;;;;5070990;28;20605;-51
2020/12/10 11:55:22;;;;;;;40.63;22.37;;;4.10;1.00;;;;;;5071429;28;20201;-52
2020/12/10 11:57:47;;;;;;;40.80;21.20;;;4.10;1.00;;;;;;5070059;28;20721;-50
2020/12/10 12:00:13;;;;;;;43.77;21.57;;;4.20;1.00;;;;;;5069836;28;20216;-52
2020/12/10 12:02:40;;;;;;;41.43;20.70;;;4.10;1.00;;;;;;5070108;28;20643;-53
2020/12/10 12:05:07;;;;;;;36.03;20.08;;;4.10;1.00;;;;;;5070142;28;20188;-55
2020/12/10 12:07:33;;;;;;;36.17;20.67;;;4.10;1.00;;;;;;5069433;28;20242;-54
2020/12/10 12:09:58;;;;;;;36.40;19.50;;;4.20;1.00;;;;;;5069115;28;20197;-53
2020/12/10 12:12:24;;;;;;;41.17;21.33;;;4.20;1.00;;;;;;5068678;28;20251;-54
2020/12/10 12:14:50;;;;;;;43.73;20.47;;;4.20;1.00;;;;;;5069476;28;20589;-53
2020/12/10 12:17:15;;;;;;;41.57;20.70;;;4.10;1.00;;;;;;5069011;28;20180;-52
2020/12/10 12:19:41;;;;;;;41.87;20.90;;;4.10;1.00;;;;;;5070263;28;20191;-53
2020/12/10 12:22:07;;;;;;;39.07;21.10;;;4.00;1.00;;;;;;5070358;28;21002;-54
2020/12/10 12:24:32;;;;;;;37.93;21.60;;;4.00;1.00;;;;;;5070142;28;20181;-50
2020/12/10 12:26:58;;;;;;;45.57;22.20;;;4.00;1.00;;;;;;5070008;28;20195;-52
2020/12/10 12:29:23;;;;;;;40.67;21.63;;;4.00;1.00;;;;;;5076211;28;20200;-54
2020/12/10 12:31:49;;;;;;;38.40;20.97;;;4.10;1.00;;;;;;5070357;28;20185;-49
2020/12/10 12:34:15;;;;;;;42.83;22.70;;;4.10;1.00;;;;;;5055695;28;20243;-50
2020/12/10 12:36:41;;;;;;;44.28;21.63;;;4.00;1.00;;;;;;5069766;28;20174;-50
2020/12/10 12:39:07;;;;;;;43.53;21.63;;;4.00;1.00;;;;;;5069883;28;20708;-56
2020/12/10 12:41:33;;;;;;;42.63;22.03;;;4.10;1.00;;;;;;5070373;28;20228;-54
2020/12/10 12:44:00;;;;;;;41.10;21.43;;;4.10;1.00;;;;;;5067804;28;20185;-56
2020/12/10 12:46:26;;;;;;;41.00;23.10;;;4.10;1.00;;;;;;5068992;28;20433;-54
2020/12/10 12:48:53;;;;;;;44.90;22.52;;;4.10;1.00;;;;;;5068906;28;20233;-55
2020/12/10 12:51:19;;;;;;;44.05;24.13;;;4.10;1.00;;;;;;5067539;28;20197;-52
2020/12/10 12:53:45;;;;;;;43.03;22.20;;;4.00;1.00;;;;;;5066250;28;20242;-52